Time;durP1;ratioP1;P1;durP2;ratioP2;P2;SDS_P1;SDS_P2;PMS_P1;PMS_P2;Temp;Humidity;BMP_temperature;BMP_pressure;BME280_temperature;BME280_humidity;BME280_pressure;Samples;Min_cycle;Max_cycle;Signal;HPM_P1;HPM_P2
2024/01/11 00:00:06;;;;;;;41.22;19.50;;;-4.50;99.90;;;;;;5104651;28;20035;-61
2024/01/11 00:02:32;;;;;;;38.13;17.42;;;-4.50;99.90;;;;;;5104807;28;20389;-61
2024/01/11 00:04:58;;;;;;;40.83;18.55;;;-4.50;99.90;;;;;;5106581;28;20046;-61
2024/01/11 00:07:23;;;;;;;41.33;18.70;;;-4.50;99.90;;;;;;5103166;28;20562;-62
2024/01/11 00:09:49;;;;;;;39.45;18.35;;;-4.50;99.90;;;;;;5104929;28;20058;-61
2024/01/11 00:12:15;;;;;;;39.42;18.70;;;-4.50;99.90;;;;;;5104905;28;20391;-65
2024/01/11 00:14:40;;;;;;;43.95;19.20;;;-4.60;99.90;;;;;;5099312;28;21013;-61
2024/01/11 00:17:06;;;;;;;40.42;20.15;;;-4.50;99.90;;;;;;5101682;28;20126;-61
2024/01/11 00:19:32;;;;;;;42.40;19.23;;;-4.60;99.90;;;;;;5102828;28;20058;-62
2024/01/11 00:21:58;;;;;;;40.22;18.95;;;-4.00;99.90;;;;;;5105289;28;20046;-61
2024/01/11 00:24:23;;;;;;;37.35;18.35;;;-4.60;99.90;;;;;;5104770;28;20415;-61
2024/01/11 00:26:49;;;;;;;40.47;18.83;;;-4.60;99.90;;;;;;5104853;28;20059;-61
2024/01/11 00:29:15;;;;;;;41.50;19.10;;;-3.20;99.90;;;;;;5104408;28;20104;-62
2024/01/11 00:31:40;;;;;;;38.42;18.77;;;-4.60;99.90;;;;;;5106038;28;20052;-61
2024/01/11 00:34:06;;;;;;;39.67;18.98;;;-4.60;99.90;;;;;;5106092;28;20039;-62
2024/01/11 00:36:36;;;;;;;40.50;19.58;;;-4.60;99.90;;;;;;5103164;28;20042;-64
2024/01/11 00:39:02;;;;;;;37.03;18.90;;;-4.70;99.90;;;;;;5104304;28;20050;-61
2024/01/11 00:41:28;;;;;;;42.38;19.35;;;-4.70;99.90;;;;;;5106178;28;20047;-61
2024/01/11 00:43:53;;;;;;;41.78;20.23;;;-4.70;99.90;;;;;;5105330;28;20094;-61
2024/01/11 00:46:19;;;;;;;43.40;19.73;;;-4.70;99.90;;;;;;5104944;28;20047;-61
2024/01/11 00:48:45;;;;;;;42.25;19.42;;;-4.80;99.90;;;;;;5087934;28;20074;-61
2024/01/11 00:51:11;;;;;;;43.90;20.73;;;-4.80;99.90;;;;;;5104434;28;20620;-61
2024/01/11 00:53:36;;;;;;;45.67;20.45;;;-4.80;99.90;;;;;;5106467;28;20412;-61
2024/01/11 00:56:02;;;;;;;41.70;19.73;;;-4.80;99.90;;;;;;5106184;28;20036;-61
2024/01/11 00:58:28;;;;;;;41.30;20.52;;;-4.80;99.90;;;;;;5109523;28;20837;-61
2024/01/11 01:00:54;;;;;;;45.72;20.70;;;-4.10;99.90;;;;;;5110005;28;20059;-62
2024/01/11 01:03:21;;;;;;;46.97;20.75;;;-4.10;99.90;;;;;;5109801;28;20048;-62
2024/01/11 01:05:46;;;;;;;47.22;21.85;;;-5.00;99.90;;;;;;5109304;28;20039;-61
2024/01/11 01:08:13;;;;;;;49.22;20.90;;;-4.80;99.90;;;;;;5106711;28;20028;-62
2024/01/11 01:10:38;;;;;;;45.05;21.50;;;-4.80;99.90;;;;;;5094124;28;20043;-62
2024/01/11 01:13:04;;;;;;;43.58;20.98;;;-4.90;99.90;;;;;;5107031;28;20045;-61
2024/01/11 01:15:30;;;;;;;43.95;20.67;;;-4.90;99.90;;;;;;5108173;28;20044;-61
2024/01/11 01:17:56;;;;;;;46.50;20.92;;;-4.80;99.90;;;;;;5108164;28;20504;-62
2024/01/11 01:20:22;;;;;;;47.20;21.77;;;-4.90;99.90;;;;;;5127580;27;20059;-61
2024/01/11 01:22:49;;;;;;;41.88;21.63;;;-4.90;99.90;;;;;;5109697;28;20449;-61
2024/01/11 01:25:15;;;;;;;43.45;19.95;;;-4.90;99.90;;;;;;5107916;28;20153;-61
2024/01/11 01:27:40;;;;;;;45.45;21.40;;;-4.90;99.90;;;;;;5109722;28;20062;-61
2024/01/11 01:30:06;;;;;;;45.42;22.00;;;-3.60;99.90;;;;;;5109466;28;20044;-61
2024/01/11 01:32:32;;;;;;;43.78;20.65;;;-4.90;99.90;;;;;;5109534;28;20043;-62
2024/01/11 01:34:58;;;;;;;44.83;20.67;;;-4.90;99.90;;;;;;5106640;28;20043;-61
2024/01/11 01:37:24;;;;;;;45.38;21.95;;;-4.90;99.90;;;;;;5108438;28;20047;-61
2024/01/11 01:39:49;;;;;;;43.53;19.98;;;-4.90;99.90;;;;;;5108078;28;20085;-61
2024/01/11 01:42:15;;;;;;;45.38;21.35;;;-4.90;99.90;;;;;;5108426;28;20684;-61
2024/01/11 01:44:41;;;;;;;43.25;19.83;;;-5.00;99.90;;;;;;5107580;28;20055;-61
2024/01/11 01:47:09;;;;;;;45.92;21.05;;;-4.50;99.90;;;;;;5108573;28;20071;-61
2024/01/11 01:49:36;;;;;;;47.42;20.80;;;-5.00;99.90;;;;;;5108276;28;20062;-61
2024/01/11 01:52:03;;;;;;;46.03;21.60;;;-5.00;99.90;;;;;;5108453;28;20090;-61
2024/01/11 01:54:31;;;;;;;47.80;22.02;;;-5.10;99.90;;;;;;5108152;28;20092;-61
2024/01/11 01:56:57;;;;;;;48.55;22.02;;;-4.90;99.90;;;;;;5087718;28;20051;-61
2024/01/11 01:59:25;;;;;;;47.47;21.50;;;-5.10;99.90;;;;;;5098905;28;20081;-61
2024/01/11 02:01:52;;;;;;;45.30;20.17;;;-5.10;99.90;;;;;;5086067;28;20131;-61
2024/01/11 02:04:18;;;;;;;44.58;20.20;;;-5.10;99.90;;;;;;5104920;28;20039;-61
2024/01/11 02:06:46;;;;;;;42.80;20.33;;;-5.10;99.90;;;;;;5103941;28;20051;-61
2024/01/11 02:09:13;;;;;;;48.00;20.83;;;-5.10;99.90;;;;;;5105416;28;20108;-61
2024/01/11 02:11:40;;;;;;;45.55;19.77;;;-4.30;99.90;;;;;;5105064;28;20078;-61
2024/01/11 02:14:07;;;;;;;46.25;21.38;;;-5.20;99.90;;;;;;5085831;28;20046;-61
2024/01/11 02:16:33;;;;;;;45.72;20.58;;;-5.30;99.90;;;;;;5106513;28;20100;-61
2024/01/11 02:18:59;;;;;;;44.53;20.63;;;-5.20;99.90;;;;;;5104990;28;20047;-61
2024/01/11 02:21:27;;;;;;;45.08;21.08;;;-5.30;99.90;;;;;;5106114;28;20046;-62
2024/01/11 02:24:06;;;;;;;46.40;20.95;;;-5.20;99.90;;;;;;5104628;28;20772;-61
2024/01/11 02:26:33;;;;;;;45.53;19.95;;;-5.30;99.90;;;;;;5106781;28;20043;-62
2024/01/11 02:28:59;;;;;;;48.72;21.27;;;-5.30;99.90;;;;;;5105406;28;20411;-61
2024/01/11 02:31:25;;;;;;;45.22;21.40;;;-5.30;99.90;;;;;;5106527;28;20039;-61
2024/01/11 02:33:55;;;;;;;46.17;21.33;;;-5.30;99.90;;;;;;5104616;28;20517;-61
2024/01/11 02:36:21;;;;;;;48.55;20.27;;;-5.30;99.90;;;;;;5103971;28;20096;-61
2024/01/11 02:38:48;;;;;;;47.45;21.52;;;-4.60;99.90;;;;;;5106602;28;20048;-61
2024/01/11 02:41:18;;;;;;;54.63;22.42;;;-5.40;99.90;;;;;;5104621;28;20051;-61
2024/01/11 02:43:50;;;;;;;44.22;20.95;;;-5.40;99.90;;;;;;5100636;28;20114;-61
2024/01/11 02:46:17;;;;;;;49.40;21.50;;;-4.20;99.90;;;;;;5103541;28;20062;-61
2024/01/11 02:48:43;;;;;;;50.58;22.48;;;-5.40;99.90;;;;;;5105519;28;20119;-61
2024/01/11 02:51:09;;;;;;;48.13;21.48;;;-5.40;99.90;;;;;;5086911;28;20043;-61
2024/01/11 02:53:35;;;;;;;45.20;20.17;;;-5.40;99.90;;;;;;5104014;28;20048;-61
2024/01/11 02:56:01;;;;;;;44.35;21.60;;;-5.40;99.90;;;;;;5086274;28;20042;-61
2024/01/11 02:58:27;;;;;;;50.03;20.83;;;-5.40;99.90;;;;;;5106394;28;20070;-61
2024/01/11 03:00:53;;;;;;;49.25;21.13;;;-5.40;99.90;;;;;;5087585;28;20079;-61
2024/01/11 03:03:18;;;;;;;43.33;20.38;;;-5.40;99.90;;;;;;5105209;28;20043;-61
2024/01/11 03:05:44;;;;;;;53.80;22.52;;;-5.20;99.90;;;;;;5105376;28;20066;-61
2024/01/11 03:08:10;;;;;;;43.63;20.17;;;-5.50;99.90;;;;;;5104224;28;20088;-61
2024/01/11 03:10:39;;;;;;;47.03;21.00;;;-5.50;99.90;;;;;;5087431;28;20061;-61
2024/01/11 03:13:06;;;;;;;42.72;20.35;;;-5.50;99.90;;;;;;5104209;28;20077;-61
2024/01/11 03:15:33;;;;;;;45.38;20.88;;;-5.50;99.90;;;;;;5104930;28;20097;-61
2024/01/11 03:17:58;;;;;;;47.65;23.42;;;-5.50;99.90;;;;;;5104443;28;20120;-61
2024/01/11 03:20:24;;;;;;;46.75;21.75;;;-5.60;99.90;;;;;;5104977;28;20130;-61
2024/01/11 03:22:52;;;;;;;45.33;20.50;;;-5.60;99.90;;;;;;5086441;28;20046;-61
2024/01/11 03:25:18;;;;;;;45.80;20.45;;;-5.20;99.90;;;;;;5105665;28;20078;-60
2024/01/11 03:27:43;;;;;;;51.45;21.27;;;-5.60;99.90;;;;;;5106045;28;20068;-61
2024/01/11 03:30:09;;;;;;;46.17;21.00;;;-5.50;99.90;;;;;;5104027;28;20047;-61
2024/01/11 03:32:35;;;;;;;51.38;21.05;;;-5.60;99.90;;;;;;5104819;28;20032;-61
2024/01/11 03:35:01;;;;;;;44.95;20.38;;;-5.60;99.90;;;;;;5104015;28;20114;-61
2024/01/11 03:37:26;;;;;;;44.50;20.38;;;-5.60;99.90;;;;;;5101625;28;20461;-62
2024/01/11 03:39:52;;;;;;;44.05;19.67;;;-5.60;99.90;;;;;;5103956;28;20516;-61
2024/01/11 03:42:18;;;;;;;44.13;20.10;;;-5.60;99.90;;;;;;5105185;28;20054;-61
2024/01/11 03:44:43;;;;;;;46.00;20.38;;;-5.70;99.90;;;;;;5086638;28;20415;-61
2024/01/11 03:47:09;;;;;;;48.10;22.23;;;-5.70;99.90;;;;;;5101641;28;20051;-64
2024/01/11 03:49:35;;;;;;;48.13;21.83;;;-5.70;99.90;;;;;;5102101;28;20043;-62
2024/01/11 03:52:00;;;;;;;50.08;20.90;;;-5.70;99.90;;;;;;5102667;28;20039;-61
2024/01/11 03:54:26;;;;;;;52.10;21.50;;;-5.70;99.90;;;;;;5102974;28;20042;-61
2024/01/11 03:56:52;;;;;;;46.53;21.52;;;-5.70;99.90;;;;;;5085865;28;20206;-61
2024/01/11 03:59:17;;;;;;;51.40;22.50;;;-5.70;99.90;;;;;;5102553;28;20821;-61
2024/01/11 04:01:43;;;;;;;44.13;20.52;;;-5.70;99.90;;;;;;5102504;28;20416;-63
2024/01/11 04:04:10;;;;;;;48.22;21.77;;;-5.70;99.90;;;;;;5085511;28;20040;-61
2024/01/11 04:06:36;;;;;;;49.05;21.35;;;-5.70;99.90;;;;;;5103276;28;20503;-61
2024/01/11 04:09:02;;;;;;;47.80;21.27;;;-5.80;99.90;;;;;;5104905;28;20039;-61
2024/01/11 04:11:28;;;;;;;48.63;22.08;;;-5.80;99.90;;;;;;5102569;28;20773;-61
2024/01/11 04:13:54;;;;;;;48.00;21.80;;;-5.80;99.90;;;;;;5102972;28;20043;-61
2024/01/11 04:16:23;;;;;;;46.13;22.23;;;-5.80;99.90;;;;;;5102063;28;20541;-61
2024/01/11 04:18:49;;;;;;;46.58;21.30;;;-5.70;99.90;;;;;;5102161;28;20052;-61
2024/01/11 04:21:28;;;;;;;46.08;21.75;;;-5.80;99.90;;;;;;5102689;28;20124;-61
2024/01/11 04:23:54;;;;;;;43.13;19.85;;;-5.00;99.90;;;;;;5103422;28;20061;-61
2024/01/11 04:26:21;;;;;;;47.75;21.73;;;-5.80;99.90;;;;;;5084582;28;20047;-61
2024/01/11 04:28:47;;;;;;;53.05;22.58;;;-5.70;99.90;;;;;;5103596;28;20658;-61
2024/01/11 04:31:14;;;;;;;51.50;22.52;;;-5.80;99.90;;;;;;5099874;28;20043;-61
2024/01/11 04:33:46;;;;;;;48.35;21.20;;;-5.70;99.90;;;;;;5102646;28;20047;-61
2024/01/11 04:36:13;;;;;;;48.83;21.13;;;-5.60;99.90;;;;;;5102721;28;20081;-61
2024/01/11 04:38:39;;;;;;;49.63;21.58;;;-5.70;99.90;;;;;;5102611;28;20078;-62
2024/01/11 04:41:12;;;;;;;54.40;23.95;;;-5.70;99.90;;;;;;5102764;28;20124;-61
2024/01/11 04:43:44;;;;;;;48.10;21.52;;;-5.70;99.90;;;;;;5102405;28;20156;-61
2024/01/11 04:46:19;;;;;;;51.95;23.63;;;-5.60;99.90;;;;;;5098797;28;20040;-61
2024/01/11 04:48:46;;;;;;;52.08;22.38;;;-5.60;99.90;;;;;;5102880;28;20048;-62
2024/01/11 04:51:13;;;;;;;56.15;23.77;;;-4.40;99.90;;;;;;5103874;28;20076;-61
2024/01/11 04:53:40;;;;;;;55.58;22.98;;;-5.60;99.90;;;;;;5103796;28;20075;-61
2024/01/11 04:56:10;;;;;;;54.88;23.13;;;-5.50;99.90;;;;;;5084356;28;20050;-61
2024/01/11 04:58:37;;;;;;;56.47;23.93;;;-5.50;99.90;;;;;;5101011;28;20043;-61
2024/01/11 05:01:05;;;;;;;60.35;24.38;;;-5.40;99.90;;;;;;5101284;28;20496;-61
2024/01/11 05:03:31;;;;;;;58.90;24.98;;;-5.40;99.90;;;;;;5101236;28;20047;-62
2024/01/11 05:05:57;;;;;;;59.75;25.30;;;-5.30;99.90;;;;;;5100477;28;20548;-62
2024/01/11 05:08:23;;;;;;;51.22;22.98;;;-5.00;99.90;;;;;;5101568;28;20043;-62
2024/01/11 05:10:50;;;;;;;53.13;23.85;;;-5.30;99.90;;;;;;5100941;28;20400;-62
2024/01/11 05:13:19;;;;;;;54.90;25.00;;;-5.30;99.90;;;;;;5082461;28;20051;-62
2024/01/11 05:15:45;;;;;;;55.67;24.27;;;-5.30;99.90;;;;;;5100995;28;20470;-63
2024/01/11 05:18:11;;;;;;;51.95;23.27;;;-5.30;99.90;;;;;;5084720;28;20044;-61
2024/01/11 05:20:38;;;;;;;53.92;24.15;;;-5.20;99.90;;;;;;5102962;28;20043;-62
2024/01/11 05:23:03;;;;;;;51.13;22.80;;;-5.20;99.90;;;;;;5101188;28;20043;-63
2024/01/11 05:25:33;;;;;;;56.65;24.35;;;-5.20;99.90;;;;;;5101756;28;20052;-63
2024/01/11 05:28:03;;;;;;;56.88;25.63;;;-5.20;99.90;;;;;;5101217;28;20100;-62
2024/01/11 05:30:29;;;;;;;58.88;24.40;;;-5.10;99.90;;;;;;5103071;28;20040;-62
2024/01/11 05:32:55;;;;;;;54.92;24.15;;;-5.10;99.90;;;;;;5103654;28;20139;-63
2024/01/11 05:35:24;;;;;;;53.63;23.58;;;-5.10;99.90;;;;;;5103660;28;20434;-61
2024/01/11 05:37:54;;;;;;;61.10;24.80;;;-5.00;99.90;;;;;;5102639;28;20055;-62
2024/01/11 05:40:21;;;;;;;48.63;20.08;;;-5.00;99.90;;;;;;5100829;28;20051;-60
2024/01/11 05:42:47;;;;;;;59.92;26.60;;;-5.00;99.90;;;;;;5103086;28;20400;-61
2024/01/11 05:45:12;;;;;;;51.55;24.25;;;-5.00;99.90;;;;;;5106635;27;20039;-61
2024/01/11 05:47:38;;;;;;;51.28;22.63;;;-5.90;99.90;;;;;;5105822;28;20040;-62
2024/01/11 05:50:05;;;;;;;57.00;25.23;;;-4.90;99.90;;;;;;5106980;28;20662;-63
2024/01/11 05:52:31;;;;;;;57.78;24.50;;;-5.00;99.90;;;;;;5106732;28;20044;-62
2024/01/11 05:54:56;;;;;;;54.25;24.42;;;-4.90;99.90;;;;;;5088419;28;20047;-63
2024/01/11 05:57:22;;;;;;;55.63;24.15;;;-4.00;99.90;;;;;;5106300;27;20624;-62
2024/01/11 05:59:48;;;;;;;59.33;25.60;;;-4.90;99.90;;;;;;5106873;28;20657;-62
2024/01/11 06:02:13;;;;;;;53.88;23.83;;;-4.80;99.90;;;;;;5106432;28;20047;-63
2024/01/11 06:04:39;;;;;;;49.75;23.13;;;-4.70;99.90;;;;;;5106233;28;20042;-63
2024/01/11 06:07:05;;;;;;;54.92;24.70;;;-4.80;99.90;;;;;;5106233;28;20035;-62
2024/01/11 06:09:31;;;;;;;53.92;24.15;;;-4.80;99.90;;;;;;5104887;28;20044;-63
2024/01/11 06:11:57;;;;;;;55.85;24.92;;;-4.70;99.90;;;;;;5086564;28;20052;-61
2024/01/11 06:14:22;;;;;;;52.28;24.05;;;-4.70;99.90;;;;;;5105826;28;20039;-62
2024/01/11 06:16:48;;;;;;;53.13;23.88;;;-4.90;99.90;;;;;;5087877;28;20210;-62
2024/01/11 06:19:14;;;;;;;59.67;24.42;;;-4.60;99.90;;;;;;5105080;28;20043;-61
2024/01/11 06:21:40;;;;;;;51.05;23.67;;;-4.70;99.90;;;;;;5105279;28;20046;-62
2024/01/11 06:24:05;;;;;;;62.42;27.17;;;-4.60;99.90;;;;;;5102840;28;20495;-62
2024/01/11 06:26:31;;;;;;;56.05;25.65;;;-4.60;99.90;;;;;;5103285;28;20557;-62
2024/01/11 06:28:57;;;;;;;51.97;23.60;;;-4.60;99.90;;;;;;5104200;28;20796;-62
2024/01/11 06:31:23;;;;;;;52.97;24.55;;;-4.50;99.90;;;;;;5101085;28;20096;-63
2024/01/11 06:33:48;;;;;;;51.80;24.20;;;-4.50;99.90;;;;;;5104051;28;20416;-63
2024/01/11 06:36:14;;;;;;;53.53;25.02;;;-4.50;99.90;;;;;;5104591;28;20067;-63
2024/01/11 06:38:40;;;;;;;58.15;25.63;;;-4.50;99.90;;;;;;5102841;28;20039;-63
2024/01/11 06:41:06;;;;;;;58.63;26.13;;;-4.40;99.90;;;;;;5100967;28;21006;-62
2024/01/11 06:43:31;;;;;;;55.33;26.55;;;-4.40;99.90;;;;;;5105673;28;20115;-63
2024/01/11 06:46:03;;;;;;;57.08;26.27;;;-4.30;99.90;;;;;;5106113;28;20063;-62
2024/01/11 06:48:28;;;;;;;59.15;25.77;;;-3.50;99.90;;;;;;5101987;28;20491;-63
2024/01/11 06:50:54;;;;;;;58.60;25.98;;;-4.30;99.90;;;;;;5103042;28;20040;-66
2024/01/11 06:53:20;;;;;;;60.83;25.52;;;-4.00;99.90;;;;;;5104041;28;20449;-67
2024/01/11 06:55:47;;;;;;;50.45;23.42;;;-4.30;99.90;;;;;;5105077;28;20075;-66
2024/01/11 06:58:13;;;;;;;52.35;24.88;;;-4.20;99.90;;;;;;5103767;27;20059;-67
2024/01/11 07:00:43;;;;;;;56.50;25.30;;;-4.20;99.90;;;;;;5097470;28;20073;-66
2024/01/11 07:03:12;;;;;;;54.30;24.83;;;-4.10;99.90;;;;;;5101129;28;20051;-67
2024/01/11 07:05:37;;;;;;;53.28;25.05;;;-4.10;99.90;;;;;;5104051;28;20039;-66
2024/01/11 07:08:04;;;;;;;51.25;24.77;;;-5.20;99.90;;;;;;5105786;28;20756;-67
2024/01/11 07:10:30;;;;;;;57.85;25.70;;;-4.10;99.90;;;;;;5103458;28;20075;-67
2024/01/11 07:12:55;;;;;;;50.30;24.33;;;-4.00;99.90;;;;;;5104220;28;20441;-66
2024/01/11 07:15:21;;;;;;;54.65;24.85;;;-4.00;99.90;;;;;;5101790;28;20039;-66
2024/01/11 07:17:47;;;;;;;59.35;24.98;;;-4.00;99.90;;;;;;5103217;28;20075;-67
2024/01/11 07:20:15;;;;;;;50.50;24.83;;;-4.00;99.90;;;;;;5100256;28;20040;-65
2024/01/11 07:22:41;;;;;;;52.70;23.92;;;-3.90;99.90;;;;;;5090777;28;20464;-66
2024/01/11 07:25:07;;;;;;;54.75;24.50;;;-3.90;99.90;;;;;;5090855;28;20047;-65
2024/01/11 07:27:33;;;;;;;51.83;23.33;;;-3.90;99.90;;;;;;5092165;28;20111;-66
2024/01/11 07:29:59;;;;;;;52.63;23.35;;;-3.90;99.90;;;;;;5089491;28;20055;-66
2024/01/11 07:32:24;;;;;;;53.63;24.92;;;-3.80;99.90;;;;;;5090883;28;20048;-66
2024/01/11 07:34:50;;;;;;;50.58;23.02;;;-3.80;99.90;;;;;;5089978;28;20083;-66
2024/01/11 07:37:16;;;;;;;52.58;23.95;;;-3.80;99.90;;;;;;5090267;28;20035;-65
2024/01/11 07:39:42;;;;;;;55.40;24.30;;;-3.80;99.90;;;;;;5088304;28;20412;-64
2024/01/11 07:42:08;;;;;;;54.05;23.75;;;-3.80;99.90;;;;;;5090510;28;20101;-66
2024/01/11 07:44:33;;;;;;;51.42;24.05;;;-3.70;99.90;;;;;;5091853;28;20741;-66
2024/01/11 07:46:59;;;;;;;52.13;23.50;;;-2.90;99.90;;;;;;5090499;28;20054;-66
2024/01/11 07:49:25;;;;;;;52.72;24.60;;;-3.70;99.90;;;;;;5111436;27;20695;-67
2024/01/11 07:51:51;;;;;;;48.50;23.25;;;-3.70;99.90;;;;;;5100961;28;20058;-66
2024/01/11 07:54:16;;;;;;;53.17;22.88;;;-3.60;99.90;;;;;;5099598;28;20508;-67
2024/01/11 07:56:42;;;;;;;58.00;24.77;;;-3.60;99.90;;;;;;5092516;28;20050;-66
2024/01/11 07:59:11;;;;;;;51.72;24.25;;;-3.60;99.90;;;;;;5092739;28;21064;-67
2024/01/11 08:01:38;;;;;;;50.58;23.40;;;-3.10;99.90;;;;;;5092506;28;20052;-67
2024/01/11 08:04:04;;;;;;;46.28;21.48;;;-3.60;99.90;;;;;;5090519;28;20108;-67
2024/01/11 08:06:30;;;;;;;48.53;22.48;;;-3.60;99.90;;;;;;5098997;28;20038;-67
2024/01/11 08:08:56;;;;;;;54.92;23.88;;;-3.50;99.90;;;;;;5100768;28;20043;-67
2024/01/11 08:11:22;;;;;;;49.67;23.25;;;-3.50;99.90;;;;;;5096102;28;20205;-66
2024/01/11 08:13:48;;;;;;;51.22;22.70;;;-3.50;99.90;;;;;;5098284;28;20154;-66
2024/01/11 08:16:26;;;;;;;49.78;22.90;;;-3.40;99.90;;;;;;5099953;28;20039;-66
2024/01/11 08:18:51;;;;;;;50.30;23.10;;;-3.40;99.90;;;;;;5098039;28;20040;-66
2024/01/11 08:21:17;;;;;;;52.22;22.83;;;-3.40;99.90;;;;;;5097385;28;20047;-65
2024/01/11 08:23:48;;;;;;;48.78;21.92;;;-2.70;99.90;;;;;;5094756;28;20856;-66
2024/01/11 08:26:15;;;;;;;36.75;17.05;;;-3.30;99.90;;;;;;5094001;28;20059;-62
2024/01/11 08:28:41;;;;;;;53.75;22.75;;;-3.30;99.90;;;;;;5098706;28;20313;-61
2024/01/11 08:31:07;;;;;;;49.80;22.92;;;-3.30;99.90;;;;;;5098134;28;20043;-63
2024/01/11 08:33:33;;;;;;;45.40;22.00;;;-3.30;99.90;;;;;;5097113;28;20044;-63
2024/01/11 08:35:58;;;;;;;47.38;22.77;;;-2.70;99.90;;;;;;5099601;28;20040;-63
2024/01/11 08:38:24;;;;;;;49.13;23.48;;;-3.20;99.90;;;;;;5100879;28;20081;-64
2024/01/11 08:40:53;;;;;;;48.55;22.88;;;-3.10;99.90;;;;;;5093827;28;20506;-62
2024/01/11 08:43:19;;;;;;;47.20;22.80;;;-3.10;99.90;;;;;;5092090;28;20043;-62
2024/01/11 08:45:44;;;;;;;46.22;23.20;;;-3.10;99.90;;;;;;5098244;28;20117;-62
2024/01/11 08:48:10;;;;;;;47.85;22.25;;;-3.10;99.90;;;;;;5100101;28;20040;-61
2024/01/11 08:50:37;;;;;;;45.50;22.08;;;-2.30;99.90;;;;;;5096610;28;20431;-61
2024/01/11 08:53:03;;;;;;;53.83;22.65;;;-3.10;99.90;;;;;;5095913;28;20185;-62
2024/01/11 08:55:28;;;;;;;53.38;24.63;;;-3.00;99.90;;;;;;5095240;28;20043;-63
2024/01/11 08:57:54;;;;;;;50.92;22.83;;;-2.90;99.90;;;;;;5092343;28;20040;-62
2024/01/11 09:00:23;;;;;;;48.67;24.25;;;-2.90;99.90;;;;;;5099377;28;20187;-62
2024/01/11 09:02:49;;;;;;;47.28;22.88;;;-2.90;99.90;;;;;;5097959;28;20055;-63
2024/01/11 09:05:15;;;;;;;52.55;24.95;;;-2.80;99.90;;;;;;5091024;28;20477;-62
2024/01/11 09:07:41;;;;;;;48.17;23.02;;;-2.80;99.90;;;;;;5099289;28;20106;-62
2024/01/11 09:10:13;;;;;;;49.95;23.98;;;-2.80;99.90;;;;;;5084593;28;20083;-63
2024/01/11 09:12:39;;;;;;;49.20;23.05;;;-2.70;99.90;;;;;;5094313;28;20046;-63
2024/01/11 09:15:05;;;;;;;48.13;23.08;;;-2.60;99.90;;;;;;5099892;28;20035;-63
2024/01/11 09:17:32;;;;;;;45.88;22.30;;;-2.70;99.90;;;;;;5081770;28;20044;-63
2024/01/11 09:19:58;;;;;;;49.15;23.33;;;-2.60;99.90;;;;;;5099099;28;20035;-63
2024/01/11 09:22:23;;;;;;;47.10;22.55;;;-2.10;99.90;;;;;;5099369;27;20077;-64
2024/01/11 09:24:50;;;;;;;39.97;20.02;;;-2.60;99.90;;;;;;5100544;28;20083;-63
2024/01/11 09:27:16;;;;;;;50.78;22.73;;;-2.50;99.90;;;;;;5127867;27;20048;-64
2024/01/11 09:29:45;;;;;;;45.38;22.15;;;-2.30;99.90;;;;;;5104418;28;20047;-63
2024/01/11 09:32:12;;;;;;;46.05;21.88;;;-2.40;99.90;;;;;;5086828;28;20767;-61
2024/01/11 09:34:38;;;;;;;44.88;21.92;;;-2.40;99.90;;;;;;5097463;28;20039;-63
2024/01/11 09:37:04;;;;;;;46.05;21.65;;;-2.40;99.90;;;;;;5101108;28;20104;-62
2024/01/11 09:39:30;;;;;;;44.80;21.42;;;-2.30;99.90;;;;;;5100980;28;20051;-62
2024/01/11 09:42:11;;;;;;;42.20;21.35;;;-2.30;99.90;;;;;;5098492;28;20557;-63
2024/01/11 09:44:38;;;;;;;;;;;-2.20;99.90;;;;;;5101241;28;20134;-63
2024/01/11 09:47:06;;;;;;;41.90;20.25;;;-2.20;99.90;;;;;;5088222;28;19923;-63
2024/01/11 09:49:34;;;;;;;44.10;20.98;;;-2.10;99.90;;;;;;5104414;28;20036;-64
2024/01/11 09:52:01;;;;;;;44.33;20.85;;;-2.10;99.90;;;;;;5096125;28;20520;-63
2024/01/11 09:54:27;;;;;;;42.90;20.70;;;-2.10;99.90;;;;;;5100719;28;20051;-63
2024/01/11 09:56:57;;;;;;;44.55;22.20;;;-2.00;99.90;;;;;;5078995;28;20085;-63
2024/01/11 09:59:25;;;;;;;42.45;21.00;;;-0.90;99.90;;;;;;5100259;28;20042;-64
2024/01/11 10:01:52;;;;;;;46.75;22.20;;;-1.90;99.90;;;;;;5103960;28;20040;-64
2024/01/11 10:04:18;;;;;;;44.55;21.98;;;-1.90;99.90;;;;;;5103221;28;20043;-65
2024/01/11 10:06:45;;;;;;;39.20;20.17;;;-1.80;99.90;;;;;;5097317;28;20044;-64
2024/01/11 10:09:10;;;;;;;44.00;21.13;;;-1.50;99.90;;;;;;5093928;28;20453;-64
2024/01/11 10:11:37;;;;;;;43.50;21.75;;;-1.70;99.90;;;;;;5102706;28;20547;-61
2024/01/11 10:14:05;;;;;;;42.80;21.98;;;-1.70;99.90;;;;;;5103307;28;20039;-61
2024/01/11 10:16:31;;;;;;;54.55;23.73;;;-1.70;99.90;;;;;;5093483;28;20634;-61
2024/01/11 10:18:57;;;;;;;40.55;20.75;;;-1.60;99.90;;;;;;5090986;28;20043;-61
2024/01/11 10:21:24;;;;;;;41.60;19.88;;;-1.50;99.90;;;;;;5102088;28;20146;-60
2024/01/11 10:23:51;;;;;;;41.38;22.08;;;-0.20;99.90;;;;;;5101969;28;20070;-63
2024/01/11 10:26:17;;;;;;;45.33;21.35;;;-1.60;99.90;;;;;;5097944;28;20039;-64
2024/01/11 10:28:45;;;;;;;41.95;19.98;;;-1.50;99.90;;;;;;5102710;28;20566;-64
2024/01/11 10:31:11;;;;;;;41.92;20.55;;;-1.40;99.90;;;;;;5092383;28;20079;-63
2024/01/11 10:33:37;;;;;;;44.13;21.13;;;-0.80;99.90;;;;;;5087383;28;20165;-63
2024/01/11 10:36:03;;;;;;;42.78;21.60;;;-1.30;99.90;;;;;;5094434;28;20050;-63
2024/01/11 10:38:30;;;;;;;43.95;20.50;;;-1.30;99.90;;;;;;5092649;28;20043;-63
2024/01/11 10:41:00;;;;;;;40.63;20.05;;;-1.30;99.90;;;;;;5085868;28;20043;-64
2024/01/11 10:43:27;;;;;;;40.88;20.38;;;-1.30;99.90;;;;;;5103784;28;20043;-64
2024/01/11 10:45:59;;;;;;;41.83;21.00;;;-1.20;99.90;;;;;;5093744;28;20048;-63
2024/01/11 10:48:26;;;;;;;44.85;21.23;;;-1.20;99.90;;;;;;5103407;28;20526;-63
2024/01/11 10:51:05;;;;;;;42.78;21.58;;;-1.20;99.90;;;;;;5093944;28;20055;-63
2024/01/11 10:53:45;;;;;;;42.97;21.95;;;-1.10;99.90;;;;;;5101310;28;20074;-62
2024/01/11 10:56:15;;;;;;;40.38;21.73;;;-1.10;99.90;;;;;;5103911;28;20096;-62
2024/01/11 10:58:42;;;;;;;40.33;22.13;;;-1.10;99.90;;;;;;5093142;27;20428;-62
2024/01/11 11:01:12;;;;;;;44.13;21.90;;;-1.00;99.90;;;;;;5088006;28;20054;-62
2024/01/11 11:03:38;;;;;;;48.85;23.00;;;-0.90;99.90;;;;;;5090206;28;20400;-63
2024/01/11 11:06:06;;;;;;;47.40;23.20;;;-0.70;99.90;;;;;;5088789;27;20128;-63
2024/01/11 11:08:33;;;;;;;49.03;23.45;;;-0.90;99.90;;;;;;5091688;28;20138;-63
2024/01/11 11:11:00;;;;;;;48.40;24.38;;;-0.80;99.90;;;;;;5092471;28;20040;-63
2024/01/11 11:13:27;;;;;;;57.30;25.95;;;-0.80;99.90;;;;;;5093871;28;20039;-63
2024/01/11 11:15:53;;;;;;;56.17;26.45;;;-0.80;99.90;;;;;;5095107;28;20051;-63
2024/01/11 11:18:22;;;;;;;55.15;26.52;;;-0.70;99.90;;;;;;5091338;28;20703;-63
2024/01/11 11:20:50;;;;;;;52.35;25.65;;;-0.70;99.90;;;;;;5090472;28;20094;-63
2024/01/11 11:23:18;;;;;;;55.72;25.10;;;-0.70;99.90;;;;;;5076042;28;20354;-63
2024/01/11 11:25:48;;;;;;;54.78;26.75;;;-0.70;99.90;;;;;;5094561;28;20817;-63
2024/01/11 11:28:16;;;;;;;53.03;24.95;;;-0.30;99.90;;;;;;5092279;28;20043;-63
2024/01/11 11:30:43;;;;;;;49.28;24.00;;;-0.60;99.90;;;;;;5089694;28;20055;-62
2024/01/11 11:33:19;;;;;;;43.58;21.75;;;-0.60;99.90;;;;;;5092184;28;20123;-63
2024/01/11 11:35:49;;;;;;;42.92;22.40;;;-0.60;99.90;;;;;;5087314;27;20079;-63
2024/01/11 11:38:20;;;;;;;42.20;22.15;;;-0.40;99.90;;;;;;5070119;28;20078;-63
2024/01/11 11:40:48;;;;;;;44.50;21.90;;;-0.50;99.90;;;;;;5091375;28;20080;-62
2024/01/11 11:43:16;;;;;;;42.08;20.95;;;-0.50;99.90;;;;;;5099830;28;20047;-62
2024/01/11 11:45:42;;;;;;;43.30;21.48;;;-0.50;99.90;;;;;;5094178;28;20043;-63
2024/01/11 11:48:31;;;;;;;38.40;20.27;;;-0.40;99.90;;;;;;5100487;28;20089;-63
2024/01/11 11:51:09;;;;;;;49.58;22.33;;;-0.40;99.90;;;;;;5101770;28;20043;-63
2024/01/11 11:53:39;;;;;;;45.38;22.17;;;-0.40;99.90;;;;;;5094276;28;20046;-63
2024/01/11 11:56:06;;;;;;;47.45;20.98;;;-0.30;99.90;;;;;;5098857;28;20489;-63
2024/01/11 11:58:33;;;;;;;42.63;21.00;;;-0.30;99.90;;;;;;5102477;27;20073;-63
2024/01/11 12:01:00;;;;;;;44.65;20.95;;;-0.20;99.90;;;;;;5093225;28;20040;-63
2024/01/11 12:03:33;;;;;;;40.10;20.27;;;-0.20;99.90;;;;;;5103497;27;20040;-63
2024/01/11 12:06:00;;;;;;;38.65;20.92;;;-0.20;99.90;;;;;;5103669;28;20225;-63
2024/01/11 12:08:27;;;;;;;40.47;21.38;;;0.70;99.90;;;;;;5098440;28;20497;-64
2024/01/11 12:10:53;;;;;;;41.67;20.67;;;-0.10;99.90;;;;;;5105043;28;20108;-63
2024/01/11 12:13:19;;;;;;;42.70;22.05;;;-0.10;99.90;;;;;;5085008;28;20079;-64
2024/01/11 12:15:46;;;;;;;42.05;20.45;;;-0.10;99.90;;;;;;5095869;28;20043;-64
2024/01/11 12:18:12;;;;;;;41.22;20.52;;;0.00;99.90;;;;;;5085829;28;20100;-64
2024/01/11 12:20:38;;;;;;;42.55;21.08;;;0.00;99.90;;;;;;5100390;28;20073;-63
2024/01/11 12:23:04;;;;;;;42.97;20.75;;;0.00;99.90;;;;;;5090857;28;20043;-63
2024/01/11 12:25:31;;;;;;;41.25;21.08;;;0.10;99.90;;;;;;5098661;28;20119;-63